createdAt,value
2023-02-14T00:02:00.060Z,9.73
2023-02-14T00:04:29.810Z,9.70
2023-02-14T00:06:58.180Z,7.82
2023-02-14T00:09:26.527Z,8.88
2023-02-14T00:12:00.309Z,7.53
2023-02-14T00:14:46.131Z,8.52
2023-02-14T00:17:14.471Z,10.60
2023-02-14T00:19:45.259Z,8.60
2023-02-14T00:22:13.568Z,8.75
2023-02-14T00:24:41.921Z,10.02
2023-02-14T00:27:13.006Z,7.20
2023-02-14T00:29:41.309Z,8.20
2023-02-14T00:32:09.663Z,7.45
2023-02-14T00:34:38.051Z,7.80
2023-02-14T00:37:10.615Z,9.38
2023-02-14T00:39:41.663Z,7.00
2023-02-14T00:42:10.098Z,7.30
2023-02-14T00:44:38.981Z,7.30
2023-02-14T00:47:07.416Z,7.40
2023-02-14T00:49:39.417Z,7.35
2023-02-14T00:52:07.726Z,9.52
2023-02-14T00:54:37.422Z,8.88
2023-02-14T00:57:05.868Z,8.32
2023-02-14T00:59:35.425Z,7.45
2023-02-14T01:02:03.720Z,9.07
2023-02-14T01:04:32.060Z,7.70
2023-02-14T01:07:00.369Z,7.03
2023-02-14T01:09:28.724Z,10.23
2023-02-14T01:11:58.530Z,10.70
2023-02-14T01:14:26.926Z,8.30
2023-02-14T01:16:55.388Z,8.52
2023-02-14T01:19:23.698Z,7.60
2023-02-14T01:21:56.567Z,10.57
2023-02-14T01:24:26.608Z,11.23
2023-02-14T01:26:54.956Z,8.77
2023-02-14T01:29:24.607Z,10.93
2023-02-14T01:31:55.791Z,9.95
2023-02-14T01:34:26.948Z,8.18
2023-02-14T01:36:55.420Z,6.32
2023-02-14T01:39:23.730Z,7.63
2023-02-14T01:41:53.931Z,7.20
2023-02-14T01:45:02.117Z,7.40
2023-02-14T01:47:32.140Z,7.18
2023-02-14T01:50:02.382Z,8.25
2023-02-14T01:52:38.611Z,7.18
2023-02-14T01:55:08.348Z,7.95
2023-02-14T01:57:38.184Z,8.10
2023-02-14T02:00:28.896Z,11.70
2023-02-14T02:02:57.339Z,9.73
2023-02-14T02:05:25.707Z,6.72
2023-02-14T02:07:54.140Z,7.72
2023-02-14T02:10:22.541Z,7.55
2023-02-14T02:12:50.844Z,7.63
2023-02-14T02:15:20.748Z,6.60
2023-02-14T02:17:53.025Z,6.10
2023-02-14T02:20:54.428Z,6.63
2023-02-14T02:23:32.949Z,7.13
2023-02-14T02:26:37.693Z,8.20
2023-02-14T02:29:19.531Z,7.38
2023-02-14T02:32:41.636Z,6.85
2023-02-14T02:35:50.425Z,7.80
2023-02-14T02:38:29.822Z,7.00
2023-02-14T02:41:08.057Z,6.55
2023-02-14T02:43:41.978Z,6.90
2023-02-14T02:46:32.389Z,10.00
2023-02-14T02:49:03.261Z,8.48
2023-02-14T02:51:53.787Z,7.65
2023-02-14T02:54:26.665Z,6.85
2023-02-14T02:56:56.020Z,10.05
2023-02-14T02:59:25.337Z,8.80
2023-02-14T03:01:57.413Z,6.50
2023-02-14T03:04:43.259Z,8.05
2023-02-14T03:07:30.797Z,6.82
2023-02-14T03:10:00.245Z,6.70
2023-02-14T03:12:53.635Z,7.35
2023-02-14T03:15:23.883Z,7.53
2023-02-14T03:17:57.619Z,7.93
2023-02-14T03:20:27.956Z,6.72
2023-02-14T03:22:59.581Z,7.35
2023-02-14T03:25:33.212Z,6.85
2023-02-14T03:28:05.724Z,6.45
2023-02-14T03:30:40.349Z,6.93
2023-02-14T03:33:11.853Z,6.38
2023-02-14T03:35:45.514Z,6.25
2023-02-14T03:38:16.222Z,6.90
2023-02-14T03:40:47.065Z,6.88
2023-02-14T03:43:16.610Z,7.20
2023-02-14T03:45:47.075Z,8.63
2023-02-14T03:48:16.023Z,6.85
2023-02-14T03:50:45.370Z,6.60
2023-02-14T03:53:15.693Z,7.22
2023-02-14T03:55:45.895Z,7.10
2023-02-14T03:58:17.184Z,8.27
2023-02-14T04:00:45.591Z,7.25
2023-02-14T04:03:14.562Z,6.90
2023-02-14T04:05:46.599Z,8.73
2023-02-14T04:08:21.254Z,6.32
2023-02-14T04:10:49.693Z,7.55
2023-02-14T04:13:18.004Z,6.57
2023-02-14T04:15:46.386Z,8.63
2023-02-14T04:18:32.183Z,7.22
2023-02-14T04:21:00.901Z,8.73
2023-02-14T04:23:30.808Z,6.65
2023-02-14T04:25:59.123Z,6.72
2023-02-14T04:28:27.484Z,7.65
2023-02-14T04:30:55.906Z,6.43
2023-02-14T04:33:24.296Z,6.65
2023-02-14T04:35:52.684Z,7.95
2023-02-14T04:38:21.028Z,7.72
2023-02-14T04:40:51.047Z,8.57
2023-02-14T04:43:19.396Z,6.82
2023-02-14T04:45:48.267Z,7.25
2023-02-14T04:48:16.571Z,8.35
2023-02-14T04:50:48.618Z,7.78
2023-02-14T04:53:19.249Z,8.63
2023-02-14T04:55:50.712Z,6.50
2023-02-14T04:58:19.017Z,8.00
2023-02-14T05:00:47.436Z,9.35
2023-02-14T05:03:15.757Z,6.32
2023-02-14T05:05:44.107Z,6.53
2023-02-14T05:08:12.472Z,7.03
2023-02-14T05:10:40.826Z,6.38
2023-02-14T05:13:10.506Z,6.60
2023-02-14T05:15:38.862Z,7.25
2023-02-14T05:18:07.258Z,6.65
2023-02-14T05:20:35.610Z,15.60
2023-02-14T05:23:05.168Z,7.35
2023-02-14T05:25:33.550Z,5.95
2023-02-14T05:28:01.885Z,6.70
2023-02-14T05:30:31.712Z,7.50
2023-02-14T05:33:00.133Z,7.25
2023-02-14T05:35:28.638Z,6.40
2023-02-14T05:37:56.944Z,9.27
2023-02-14T05:42:53.125Z,6.75
2023-02-14T05:45:21.540Z,8.23
2023-02-14T05:47:51.372Z,6.97
2023-02-14T05:50:20.105Z,6.45
2023-02-14T05:52:48.413Z,10.13
2023-02-14T05:55:16.794Z,9.45
2023-02-14T05:57:45.188Z,6.88
2023-02-14T06:00:14.869Z,7.00
2023-02-14T06:02:43.295Z,7.35
2023-02-14T06:05:12.980Z,6.00
2023-02-14T06:07:43.156Z,5.65
2023-02-14T06:10:12.719Z,6.25
2023-02-14T06:12:41.020Z,7.68
2023-02-14T06:15:09.576Z,10.20
2023-02-14T06:17:37.880Z,8.60
2023-02-14T06:20:07.512Z,6.38
2023-02-14T06:22:37.285Z,6.35
2023-02-14T06:25:06.272Z,6.20
2023-02-14T06:27:34.571Z,11.45
2023-02-14T06:30:02.932Z,11.13
2023-02-14T06:32:31.254Z,7.78
2023-02-14T06:34:59.668Z,7.25
2023-02-14T06:37:27.967Z,9.18
2023-02-14T06:39:57.685Z,6.50
2023-02-14T06:42:26.159Z,6.45
2023-02-14T06:44:54.532Z,9.52
2023-02-14T06:47:22.829Z,7.68
2023-02-14T06:49:51.187Z,9.40
2023-02-14T06:52:19.523Z,9.27
2023-02-14T06:54:47.851Z,9.57
2023-02-14T06:57:17.492Z,7.90
2023-02-14T06:59:45.852Z,9.20
2023-02-14T07:02:14.251Z,7.85
2023-02-14T07:04:42.574Z,9.35
2023-02-14T07:07:10.882Z,10.27
2023-02-14T07:09:39.300Z,8.82
2023-02-14T07:12:08.037Z,8.23
2023-02-14T07:14:37.784Z,7.38
2023-02-14T07:17:06.228Z,7.97
2023-02-14T07:19:34.564Z,12.98
2023-02-14T07:22:02.911Z,7.97
2023-02-14T07:24:31.257Z,7.32
2023-02-14T07:26:59.710Z,7.18
2023-02-14T07:29:28.171Z,10.90
2023-02-14T07:31:57.991Z,16.75
2023-02-14T07:34:27.243Z,8.68
2023-02-14T07:36:55.704Z,16.13
2023-02-14T07:39:24.097Z,9.90
2023-02-14T07:41:52.443Z,12.75
2023-02-14T07:44:20.870Z,9.35
2023-02-14T07:46:49.229Z,9.05
2023-02-14T07:49:18.920Z,8.73
2023-02-14T07:51:47.288Z,8.90
2023-02-14T07:54:15.610Z,10.82
2023-02-14T07:56:43.917Z,10.60
2023-02-14T07:59:12.273Z,13.80
2023-02-14T08:01:40.635Z,10.32
2023-02-14T08:04:09.050Z,9.13
2023-02-14T08:06:38.763Z,10.93
2023-02-14T08:09:07.161Z,14.05
2023-02-14T08:11:53.233Z,10.05
2023-02-14T08:14:21.768Z,8.73
2023-02-14T08:16:50.059Z,10.45
2023-02-14T08:19:18.404Z,10.77
2023-02-14T08:21:48.059Z,12.45
2023-02-14T08:24:16.513Z,9.55
2023-02-14T08:26:47.527Z,10.82
2023-02-14T08:29:16.913Z,9.75
2023-02-14T08:31:45.337Z,13.85
2023-02-14T08:34:13.735Z,9.13
2023-02-14T08:36:42.052Z,11.65
2023-02-14T08:39:11.747Z,11.55
2023-02-14T08:41:40.113Z,10.98
2023-02-14T08:44:08.541Z,11.95
2023-02-14T08:46:37.351Z,11.93
2023-02-14T08:49:06.099Z,9.45
2023-02-14T08:51:34.462Z,11.90
2023-02-14T08:54:02.817Z,12.45
2023-02-14T08:56:33.047Z,11.40
2023-02-14T08:59:01.501Z,10.07
2023-02-14T09:01:29.932Z,18.45
2023-02-14T09:03:58.499Z,11.38
2023-02-14T09:06:26.858Z,15.80
2023-02-14T09:08:55.283Z,10.48
2023-02-14T09:11:24.639Z,17.42
2023-02-14T09:13:54.461Z,12.93
2023-02-14T09:16:23.154Z,7.60
2023-02-14T09:18:52.645Z,7.90
2023-02-14T09:21:22.119Z,11.93
2023-02-14T09:23:50.598Z,13.02
2023-02-14T09:26:18.953Z,11.40
2023-02-14T09:28:48.151Z,17.50
2023-02-14T09:31:19.045Z,15.45
2023-02-14T09:34:05.671Z,15.85
2023-02-14T09:36:51.564Z,23.63
2023-02-14T09:39:19.943Z,17.90
2023-02-14T09:42:08.572Z,14.15
2023-02-14T09:44:38.545Z,15.50
2023-02-14T09:47:12.470Z,16.88
2023-02-14T09:49:40.928Z,30.83
2023-02-14T09:52:11.876Z,13.48
2023-02-14T09:54:40.542Z,13.05
2023-02-14T09:57:11.813Z,16.10
2023-02-14T09:59:43.631Z,23.77
2023-02-14T10:02:26.316Z,27.52
2023-02-14T10:04:58.734Z,35.17
2023-02-14T10:07:28.605Z,36.03
2023-02-14T10:09:58.864Z,37.47
2023-02-14T10:12:29.290Z,31.67
2023-02-14T10:14:58.541Z,35.15
2023-02-14T10:17:32.411Z,25.25
2023-02-14T10:20:02.404Z,24.70
2023-02-14T10:22:34.166Z,25.05
2023-02-14T10:25:04.664Z,27.10
2023-02-14T10:27:34.551Z,18.17
2023-02-14T10:30:03.519Z,21.45
2023-02-14T10:32:36.413Z,29.30
2023-02-14T10:35:06.979Z,19.33
2023-02-14T10:37:46.841Z,17.67
2023-02-14T10:40:30.107Z,19.88
2023-02-14T10:43:00.450Z,20.35
2023-02-14T10:45:32.145Z,18.98
2023-02-14T10:48:04.018Z,21.80
2023-02-14T10:50:35.536Z,21.83
2023-02-14T10:53:08.557Z,19.95
2023-02-14T10:55:44.097Z,20.38
2023-02-14T10:58:14.479Z,16.88
2023-02-14T11:00:54.049Z,17.83
2023-02-14T11:03:23.882Z,18.23
2023-02-14T11:05:52.253Z,16.30
2023-02-14T11:08:25.452Z,21.88
2023-02-14T11:10:54.069Z,14.98
2023-02-14T11:13:33.187Z,19.67
2023-02-14T11:16:03.355Z,16.23
2023-02-14T11:18:35.825Z,20.38
2023-02-14T11:21:09.711Z,18.08
2023-02-14T11:23:39.940Z,22.88
2023-02-14T11:26:22.400Z,20.70
2023-02-14T11:28:54.028Z,16.27
2023-02-14T11:31:30.286Z,19.70
2023-02-14T11:34:00.342Z,19.53
2023-02-14T11:36:28.951Z,17.95
2023-02-14T11:38:59.034Z,15.50
2023-02-14T11:41:27.368Z,19.15
2023-02-14T11:43:55.684Z,15.93
2023-02-14T11:46:27.759Z,26.05
2023-02-14T11:48:57.913Z,18.73
2023-02-14T11:51:32.223Z,19.65
2023-02-14T11:54:04.752Z,17.65
2023-02-14T11:56:49.909Z,16.60
2023-02-14T11:59:29.090Z,20.65
2023-02-14T12:01:58.902Z,16.38
2023-02-14T12:04:32.801Z,17.83
2023-02-14T12:07:18.986Z,21.83
2023-02-14T12:09:47.788Z,20.52
2023-02-14T12:12:20.874Z,17.00
2023-02-14T12:14:49.260Z,16.10
2023-02-14T12:17:26.813Z,15.63
2023-02-14T12:19:56.614Z,18.52
2023-02-14T12:22:28.903Z,15.85
2023-02-14T12:25:00.563Z,19.55
2023-02-14T12:27:30.840Z,18.60
2023-02-14T12:30:02.014Z,15.98
2023-02-14T12:32:31.510Z,14.23
2023-02-14T12:35:03.198Z,16.63
2023-02-14T12:37:38.720Z,19.40
2023-02-14T12:40:14.158Z,18.65
2023-02-14T12:43:00.710Z,17.05
2023-02-14T12:45:37.151Z,17.45
2023-02-14T12:48:10.133Z,19.77
2023-02-14T12:50:42.462Z,15.63
2023-02-14T12:53:28.719Z,16.08
2023-02-14T12:56:02.386Z,17.92
2023-02-14T12:58:38.236Z,14.98
2023-02-14T13:01:21.775Z,19.20
2023-02-14T13:04:30.507Z,14.25
2023-02-14T13:07:01.444Z,17.08
2023-02-14T13:09:35.867Z,14.73
2023-02-14T13:12:11.469Z,15.73
2023-02-14T13:14:51.443Z,16.13
2023-02-14T13:17:23.485Z,16.85
2023-02-14T13:19:55.003Z,14.30
2023-02-14T13:22:23.955Z,15.73
2023-02-14T13:24:56.485Z,13.75
2023-02-14T13:27:27.765Z,21.63
2023-02-14T13:29:57.715Z,14.43
2023-02-14T13:32:28.407Z,15.98
2023-02-14T13:34:56.772Z,19.60
2023-02-14T13:37:27.245Z,16.02
2023-02-14T13:39:58.152Z,17.75
2023-02-14T13:42:52.177Z,15.00
2023-02-14T13:45:55.260Z,15.52
2023-02-14T13:48:24.583Z,18.23
2023-02-14T13:50:54.825Z,17.63
2023-02-14T13:53:41.194Z,15.95
2023-02-14T13:56:33.736Z,16.55
2023-02-14T13:59:04.501Z,14.25
2023-02-14T14:01:38.884Z,16.85
2023-02-14T14:04:08.433Z,15.20
2023-02-14T14:07:15.954Z,12.85
2023-02-14T14:10:00.402Z,14.35
2023-02-14T14:12:43.273Z,12.43
2023-02-14T14:15:13.532Z,15.07
2023-02-14T14:17:45.515Z,12.38
2023-02-14T14:20:45.916Z,12.18
2023-02-14T14:23:31.872Z,10.43
2023-02-14T14:26:01.108Z,12.68
2023-02-14T14:28:32.693Z,10.43
2023-02-14T14:31:01.061Z,11.75
2023-02-14T14:33:30.423Z,10.00
2023-02-14T14:36:00.151Z,11.75
2023-02-14T14:38:28.731Z,10.88
2023-02-14T14:40:57.072Z,13.88
2023-02-14T14:43:30.482Z,10.90
2023-02-14T14:45:59.622Z,11.57
2023-02-14T14:48:30.754Z,13.02
2023-02-14T14:50:59.418Z,11.02
2023-02-14T14:53:29.206Z,12.02
2023-02-14T14:55:57.585Z,11.65
2023-02-14T14:58:38.195Z,14.70
2023-02-14T15:01:07.466Z,17.73
2023-02-14T15:03:35.882Z,12.70
2023-02-14T15:06:07.237Z,13.18
2023-02-14T15:08:35.607Z,11.05
2023-02-14T15:11:07.313Z,15.35
2023-02-14T15:13:50.647Z,11.95
2023-02-14T15:16:23.369Z,9.90
2023-02-14T15:18:52.014Z,11.00
2023-02-14T15:21:20.337Z,13.95
2023-02-14T15:23:48.798Z,13.30
2023-02-14T15:26:18.765Z,12.50
2023-02-14T15:28:54.623Z,11.88
2023-02-14T15:31:23.108Z,16.27
2023-02-14T15:33:51.527Z,14.27
2023-02-14T15:36:21.352Z,13.40
2023-02-14T15:38:49.715Z,12.55
2023-02-14T15:41:20.000Z,12.88
2023-02-14T15:43:53.831Z,13.85
2023-02-14T15:46:29.943Z,13.85
2023-02-14T15:49:00.750Z,14.13
2023-02-14T15:51:30.387Z,13.48
2023-02-14T15:53:59.434Z,12.68
2023-02-14T15:56:29.018Z,14.80
2023-02-14T15:59:03.357Z,14.20
2023-02-14T16:01:32.002Z,13.07
2023-02-14T16:04:01.409Z,12.18
2023-02-14T16:06:35.037Z,11.18
2023-02-14T16:09:03.818Z,12.18
2023-02-14T16:11:35.291Z,17.92
2023-02-14T16:14:25.972Z,17.25
2023-02-14T16:16:58.093Z,14.63
2023-02-14T16:19:33.703Z,15.57
2023-02-14T16:22:02.060Z,14.77
2023-02-14T16:24:30.578Z,14.90
2023-02-14T16:27:00.440Z,15.25
2023-02-14T16:29:30.088Z,13.73
2023-02-14T16:32:15.798Z,13.73
2023-02-14T16:34:47.163Z,12.35
2023-02-14T16:37:22.414Z,14.57
2023-02-14T16:39:51.232Z,14.65
2023-02-14T16:42:19.589Z,18.48
2023-02-14T16:44:49.422Z,12.95
2023-02-14T16:47:18.549Z,16.33
2023-02-14T16:49:46.902Z,15.93
2023-02-14T16:52:16.234Z,15.65
2023-02-14T16:54:44.720Z,11.68
2023-02-14T16:57:17.478Z,17.60
2023-02-14T16:59:45.840Z,14.20
2023-02-14T17:02:16.318Z,14.68
2023-02-14T17:04:44.828Z,20.13
2023-02-14T17:07:13.422Z,14.50
2023-02-14T17:09:44.663Z,18.65
2023-02-14T17:12:16.398Z,16.08
2023-02-14T17:14:45.670Z,19.38
2023-02-14T17:17:15.336Z,29.50
2023-02-14T17:19:43.656Z,28.83
2023-02-14T17:22:13.486Z,36.95
2023-02-14T17:24:42.040Z,36.70
2023-02-14T17:27:10.410Z,40.95
2023-02-14T17:29:38.740Z,38.30
2023-02-14T17:32:07.194Z,42.35
2023-02-14T17:34:36.954Z,36.90
2023-02-14T17:37:05.351Z,36.22
2023-02-14T17:39:33.782Z,39.58
2023-02-14T17:42:02.162Z,33.53
2023-02-14T17:44:32.487Z,31.92
2023-02-14T17:47:00.891Z,33.97
2023-02-14T17:49:29.364Z,31.83
2023-02-14T17:51:59.081Z,30.40
2023-02-14T17:54:27.510Z,41.30
2023-02-14T17:56:55.945Z,37.80
2023-02-14T17:59:24.395Z,39.42
2023-02-14T18:01:52.730Z,38.17
2023-02-14T18:04:21.038Z,36.15
2023-02-14T18:06:49.420Z,35.92
2023-02-14T18:09:20.297Z,31.50
2023-02-14T18:11:49.954Z,41.42
2023-02-14T18:14:18.284Z,32.47
2023-02-14T18:16:46.733Z,32.63
2023-02-14T18:19:15.769Z,42.75
2023-02-14T18:21:44.893Z,41.50
2023-02-14T18:24:15.139Z,43.97
2023-02-14T18:26:44.912Z,38.42
2023-02-14T18:29:13.411Z,36.85
2023-02-14T18:31:42.951Z,32.70
2023-02-14T18:34:11.449Z,36.75
2023-02-14T18:36:40.919Z,31.88
2023-02-14T18:39:09.498Z,30.48
2023-02-14T18:41:37.964Z,32.22
2023-02-14T18:44:07.972Z,29.10
2023-02-14T18:46:36.638Z,29.40
2023-02-14T18:49:05.915Z,30.50
2023-02-14T18:51:35.112Z,28.40
2023-02-14T18:54:04.431Z,31.88
2023-02-14T18:56:33.701Z,29.00
2023-02-14T18:59:03.181Z,32.15
2023-02-14T19:01:33.805Z,29.55
2023-02-14T19:04:02.315Z,28.67
2023-02-14T19:06:31.467Z,29.55
2023-02-14T19:09:00.003Z,26.67
2023-02-14T19:11:31.307Z,29.25
2023-02-14T19:14:00.706Z,29.10
2023-02-14T19:16:29.934Z,24.40
2023-02-14T19:18:59.833Z,25.80
2023-02-14T19:21:30.472Z,26.35
2023-02-14T19:23:58.999Z,32.28
2023-02-14T19:26:29.104Z,31.17
2023-02-14T19:28:58.848Z,29.75
2023-02-14T19:31:27.475Z,25.65
2023-02-14T19:33:55.864Z,22.23
2023-02-14T19:36:25.623Z,25.27
2023-02-14T19:38:54.216Z,24.15
2023-02-14T19:41:23.608Z,24.60
2023-02-14T19:43:52.560Z,22.95
2023-02-14T19:46:21.455Z,23.95
2023-02-14T19:48:49.882Z,23.10
2023-02-14T19:51:19.684Z,23.63
2023-02-14T19:53:49.722Z,22.20
2023-02-14T19:56:19.943Z,23.67
2023-02-14T19:58:48.504Z,26.98
2023-02-14T20:01:23.446Z,31.63
2023-02-14T20:03:52.351Z,27.98
2023-02-14T20:06:21.298Z,28.20
2023-02-14T20:08:51.018Z,27.90
2023-02-14T20:11:25.832Z,28.95
2023-02-14T20:13:55.078Z,25.60
2023-02-14T20:16:23.463Z,23.38
2023-02-14T20:18:51.902Z,24.85
2023-02-14T20:21:24.086Z,26.77
2023-02-14T20:23:53.747Z,25.25
2023-02-14T20:26:22.048Z,23.25
2023-02-14T20:28:50.885Z,25.13
2023-02-14T20:31:20.099Z,24.05
2023-02-14T20:33:50.464Z,21.98
2023-02-14T20:36:18.830Z,22.77
2023-02-14T20:38:47.141Z,23.85
2023-02-14T20:41:17.461Z,23.15
2023-02-14T20:43:45.845Z,22.13
2023-02-14T20:46:14.327Z,22.88
2023-02-14T20:48:42.704Z,21.65
2023-02-14T20:51:12.248Z,20.85
2023-02-14T20:53:40.691Z,28.83
2023-02-14T20:56:09.120Z,21.65
2023-02-14T20:58:39.022Z,23.05
2023-02-14T21:01:08.177Z,24.33
2023-02-14T21:03:37.222Z,25.30
2023-02-14T21:06:06.593Z,24.02
2023-02-14T21:08:34.960Z,27.10
2023-02-14T21:11:03.583Z,27.13
2023-02-14T21:13:32.047Z,24.23
2023-02-14T21:16:04.060Z,25.92
2023-02-14T21:18:33.171Z,27.15
2023-02-14T21:21:05.810Z,26.92
2023-02-14T21:23:34.180Z,28.50
2023-02-14T21:26:02.506Z,23.30
2023-02-14T21:28:30.924Z,26.73
2023-02-14T21:31:06.937Z,24.30
2023-02-14T21:33:35.484Z,23.75
2023-02-14T21:36:07.509Z,25.90
2023-02-14T21:38:35.988Z,24.05
2023-02-14T21:41:05.083Z,24.35
2023-02-14T21:43:34.787Z,25.40
2023-02-14T21:46:05.010Z,25.60
2023-02-14T21:48:52.946Z,27.27
2023-02-14T21:51:21.509Z,26.63
2023-02-14T21:53:50.142Z,24.65
2023-02-14T21:56:19.753Z,24.17
2023-02-14T21:58:48.473Z,22.25
2023-02-14T22:01:17.503Z,22.70
2023-02-14T22:03:47.219Z,27.48
2023-02-14T22:06:15.648Z,24.98
2023-02-14T22:08:44.032Z,26.58
2023-02-14T22:11:13.601Z,19.98
2023-02-14T22:13:42.167Z,23.33
2023-02-14T22:16:11.484Z,19.65
2023-02-14T22:18:40.033Z,22.45
2023-02-14T22:21:10.821Z,22.38
2023-02-14T22:23:39.295Z,22.52
2023-02-14T22:26:11.625Z,22.65
2023-02-14T22:28:40.095Z,20.60
2023-02-14T22:31:08.740Z,21.95
2023-02-14T22:33:37.994Z,20.75
2023-02-14T22:36:07.046Z,21.80
2023-02-14T22:38:36.838Z,20.35
2023-02-14T22:41:06.234Z,23.15
2023-02-14T22:43:34.837Z,22.23
2023-02-14T22:46:04.782Z,20.73
2023-02-14T22:48:33.652Z,20.70
2023-02-14T22:51:09.263Z,25.02
2023-02-14T22:53:39.020Z,23.65
2023-02-14T22:56:11.924Z,21.17
2023-02-14T22:58:40.312Z,20.98
2023-02-14T23:01:13.318Z,19.38
2023-02-14T23:03:41.757Z,20.35
2023-02-14T23:06:10.471Z,21.05
2023-02-14T23:08:41.267Z,21.00
2023-02-14T23:11:10.243Z,31.80
2023-02-14T23:13:56.223Z,21.38
2023-02-14T23:16:53.800Z,23.30
2023-02-14T23:19:40.327Z,20.20
2023-02-14T23:22:11.017Z,20.77
2023-02-14T23:24:40.735Z,22.15
2023-02-14T23:27:09.573Z,23.23
2023-02-14T23:29:37.959Z,19.15
2023-02-14T23:32:06.713Z,23.17
2023-02-14T23:34:35.939Z,24.23
2023-02-14T23:37:04.349Z,19.05
2023-02-14T23:39:35.723Z,20.58
2023-02-14T23:42:05.592Z,21.30
2023-02-14T23:44:34.078Z,21.48
2023-02-14T23:47:04.225Z,21.27
2023-02-14T23:49:33.084Z,22.63
2023-02-14T23:52:01.455Z,20.50
2023-02-14T23:54:29.832Z,19.83
2023-02-14T23:56:58.697Z,22.55
2023-02-14T23:59:28.510Z,20.15
